Time;durP1;ratioP1;P1;durP2;ratioP2;P2;SDS_P1;SDS_P2;PMS_P1;PMS_P2;Temp;Humidity;BMP_temperature;BMP_pressure;BME280_temperature;BME280_humidity;BME280_pressure;Samples;Min_cycle;Max_cycle;Signal;HPM_P1;HPM_P2
2022/10/23 00:01:22;;;;;;;51.23;26.93;;;12.70;99.90;;;;;;4754331;30;20257;-76
2022/10/23 00:04:04;;;;;;;50.40;27.77;;;12.70;99.90;;;;;;4754127;30;20201;-76
2022/10/23 00:06:32;;;;;;;49.47;27.77;;;12.70;99.90;;;;;;4752764;30;20210;-76
2022/10/23 00:09:00;;;;;;;48.87;27.60;;;12.60;99.90;;;;;;4754073;30;20284;-75
2022/10/23 00:11:29;;;;;;;53.97;28.67;;;12.70;99.90;;;;;;4753046;30;20214;-75
2022/10/23 00:13:59;;;;;;;47.73;27.17;;;12.70;99.90;;;;;;4754046;30;20584;-75
2022/10/23 00:16:26;;;;;;;50.73;27.63;;;12.60;99.90;;;;;;4753808;30;20228;-75
2022/10/23 00:18:53;;;;;;;48.63;25.83;;;12.70;99.90;;;;;;4752554;30;20214;-75
2022/10/23 00:21:21;;;;;;;54.60;26.97;;;12.70;99.90;;;;;;4767338;30;20610;-76
2022/10/23 00:23:48;;;;;;;48.50;26.70;;;12.70;99.90;;;;;;4752986;30;20209;-76
2022/10/23 00:26:15;;;;;;;45.20;24.30;;;12.70;99.90;;;;;;4752425;30;20531;-76
2022/10/23 00:28:43;;;;;;;49.33;24.80;;;12.70;99.90;;;;;;4752509;30;20680;-76
2022/10/23 00:31:11;;;;;;;47.73;24.27;;;12.70;99.90;;;;;;4752805;30;20208;-76
2022/10/23 00:33:38;;;;;;;49.33;25.47;;;12.60;99.90;;;;;;4752335;30;20230;-76
2022/10/23 00:36:07;;;;;;;50.20;24.00;;;12.70;99.90;;;;;;4767451;30;20202;-76
2022/10/23 00:38:34;;;;;;;46.33;23.00;;;12.70;99.90;;;;;;4752236;30;20632;-76
2022/10/23 00:41:01;;;;;;;48.20;24.17;;;12.80;99.90;;;;;;4753692;30;20254;-76
2022/10/23 00:43:33;;;;;;;49.93;23.23;;;12.70;99.90;;;;;;4767005;30;20218;-76
2022/10/23 00:46:00;;;;;;;48.70;22.73;;;12.70;99.90;;;;;;4766785;30;20210;-76
2022/10/23 00:48:28;;;;;;;48.20;22.87;;;12.70;99.90;;;;;;4766805;30;20198;-76
2022/10/23 00:50:55;;;;;;;44.73;22.20;;;12.60;99.90;;;;;;4752131;30;20241;-76
2022/10/23 00:53:23;;;;;;;45.40;22.27;;;12.70;99.90;;;;;;4766950;30;20769;-76
2022/10/23 00:55:52;;;;;;;42.63;20.73;;;12.80;99.90;;;;;;4751904;30;20569;-76
2022/10/23 00:58:20;;;;;;;45.53;22.10;;;12.80;99.90;;;;;;4767156;30;20205;-77
2022/10/23 01:00:47;;;;;;;47.07;21.97;;;12.80;99.90;;;;;;4753232;30;20193;-76
2022/10/23 01:03:16;;;;;;;48.07;22.13;;;12.90;99.90;;;;;;4751821;30;20206;-75
2022/10/23 01:06:05;;;;;;;45.57;21.63;;;12.90;99.90;;;;;;4751675;30;20558;-76
2022/10/23 01:08:45;;;;;;;51.80;22.63;;;12.80;99.90;;;;;;4751964;30;20205;-76
2022/10/23 01:11:29;;;;;;;53.90;22.83;;;12.80;99.90;;;;;;4766329;30;20549;-76
2022/10/23 01:14:08;;;;;;;53.60;23.27;;;12.80;99.90;;;;;;4736799;30;20313;-75
2022/10/23 01:16:58;;;;;;;60.10;24.27;;;12.80;99.90;;;;;;4752662;30;20202;-75
2022/10/23 01:19:37;;;;;;;56.13;24.43;;;12.80;99.90;;;;;;4749450;30;20239;-76
2022/10/23 01:22:33;;;;;;;60.70;24.57;;;12.70;99.90;;;;;;4751825;30;20217;-76
2022/10/23 01:25:24;;;;;;;63.10;25.00;;;12.70;99.90;;;;;;4718286;30;20210;-76
2022/10/23 01:27:58;;;;;;;57.23;23.93;;;12.70;99.90;;;;;;4718684;30;20301;-76
2022/10/23 01:30:25;;;;;;;58.27;24.67;;;12.80;99.90;;;;;;4733053;30;20271;-76
2022/10/23 01:32:57;;;;;;;59.57;24.93;;;12.80;99.90;;;;;;4718318;30;20225;-76
2022/10/23 01:35:26;;;;;;;55.60;23.20;;;12.80;99.90;;;;;;4732698;30;20210;-76
2022/10/23 01:38:17;;;;;;;56.87;24.50;;;12.90;99.90;;;;;;4733181;30;20301;-75
2022/10/23 01:40:54;;;;;;;56.73;24.60;;;12.80;99.90;;;;;;4733119;30;20217;-76
2022/10/23 01:43:28;;;;;;;60.20;24.63;;;12.80;99.90;;;;;;4718026;30;20202;-76
2022/10/23 01:46:00;;;;;;;56.87;23.73;;;12.90;99.90;;;;;;4718066;30;20213;-75
2022/10/23 01:48:29;;;;;;;58.57;24.03;;;12.90;99.90;;;;;;4718044;30;20206;-75
2022/10/23 01:51:00;;;;;;;57.00;24.70;;;12.90;99.90;;;;;;4711000;30;20246;-75
2022/10/23 01:53:30;;;;;;;55.37;23.70;;;12.90;99.90;;;;;;4697937;30;20258;-75
2022/10/23 01:56:00;;;;;;;58.47;23.80;;;12.90;99.90;;;;;;4683458;30;20212;-75
2022/10/23 01:58:29;;;;;;;56.93;23.73;;;12.90;99.90;;;;;;4683969;30;20234;-76
2022/10/23 02:01:00;;;;;;;60.03;24.70;;;12.90;99.90;;;;;;4685443;30;20211;-76
2022/10/23 02:03:30;;;;;;;56.27;24.07;;;12.90;99.90;;;;;;4733599;30;20209;-77
2022/10/23 02:05:57;;;;;;;58.03;23.93;;;12.90;99.90;;;;;;4718742;30;20218;-76
2022/10/23 02:08:24;;;;;;;63.47;24.90;;;12.90;99.90;;;;;;4733843;30;20402;-77
2022/10/23 02:11:03;;;;;;;60.97;25.43;;;12.90;99.90;;;;;;4718821;30;20213;-76
2022/10/23 02:13:58;;;;;;;59.40;25.17;;;12.90;99.90;;;;;;4718957;30;20233;-76
2022/10/23 02:16:43;;;;;;;58.07;26.10;;;12.90;99.90;;;;;;4734608;30;20202;-76
2022/10/23 02:19:26;;;;;;;56.43;24.43;;;13.00;99.90;;;;;;4718577;30;20213;-76
2022/10/23 02:21:55;;;;;;;56.50;24.80;;;13.00;99.90;;;;;;4734397;30;20214;-76
2022/10/23 02:24:33;;;;;;;59.67;25.37;;;13.00;99.90;;;;;;4737210;30;20217;-76
2022/10/23 02:27:03;;;;;;;60.30;25.53;;;13.00;99.90;;;;;;4736866;30;20206;-76
2022/10/23 02:29:41;;;;;;;59.97;26.53;;;13.00;99.90;;;;;;4736876;30;20216;-76
2022/10/23 02:32:09;;;;;;;59.77;25.63;;;13.00;99.90;;;;;;4737178;30;20574;-76
2022/10/23 02:34:37;;;;;;;66.77;24.40;;;12.90;99.90;;;;;;4721841;30;20240;-76
2022/10/23 02:37:04;;;;;;;60.40;26.60;;;13.00;99.90;;;;;;4722450;30;20206;-76
2022/10/23 02:39:31;;;;;;;61.33;25.87;;;13.00;99.90;;;;;;4736809;30;20672;-76
2022/10/23 02:42:19;;;;;;;59.07;25.03;;;12.90;99.90;;;;;;4736897;30;20245;-76
2022/10/23 02:45:14;;;;;;;62.63;26.10;;;13.00;99.90;;;;;;4737804;30;20272;-76
2022/10/23 02:47:57;;;;;;;62.33;25.73;;;13.00;99.90;;;;;;4737603;30;20253;-76
2022/10/23 02:51:00;;;;;;;61.87;25.60;;;13.00;99.90;;;;;;4732735;30;20241;-76
2022/10/23 02:54:01;;;;;;;68.33;27.43;;;12.90;99.90;;;;;;4769650;30;20305;-76
2022/10/23 02:56:43;;;;;;;62.23;25.30;;;13.00;99.90;;;;;;4735306;30;20217;-75
2022/10/23 02:59:33;;;;;;;65.83;26.43;;;13.00;99.90;;;;;;4720989;30;20210;-75
2022/10/23 03:02:10;;;;;;;61.63;26.37;;;12.90;99.90;;;;;;4735555;30;20589;-75
2022/10/23 03:04:39;;;;;;;64.20;26.43;;;13.00;99.90;;;;;;4735493;30;20245;-75
2022/10/23 03:07:11;;;;;;;67.07;27.43;;;13.10;99.90;;;;;;4735406;30;20241;-75
2022/10/23 03:09:38;;;;;;;65.03;26.67;;;13.00;99.90;;;;;;4735432;30;20222;-76
2022/10/23 03:12:05;;;;;;;60.73;26.67;;;12.90;99.90;;;;;;4735156;30;20223;-75
2022/10/23 03:14:32;;;;;;;67.17;27.73;;;12.90;99.90;;;;;;4735294;30;20234;-76
2022/10/23 03:16:59;;;;;;;68.87;27.97;;;12.90;99.90;;;;;;4735252;30;20250;-75
2022/10/23 03:19:26;;;;;;;65.53;26.57;;;12.90;99.90;;;;;;4735047;30;20342;-76
2022/10/23 03:21:53;;;;;;;65.50;27.27;;;13.00;99.90;;;;;;4735335;30;20210;-76
2022/10/23 03:24:20;;;;;;;65.93;28.33;;;13.00;99.90;;;;;;4735301;30;20214;-76
2022/10/23 03:26:47;;;;;;;65.40;28.37;;;13.00;99.90;;;;;;4734842;30;20625;-76
2022/10/23 03:29:14;;;;;;;62.57;27.47;;;13.00;99.90;;;;;;4735141;30;20210;-75
2022/10/23 03:31:41;;;;;;;63.10;26.20;;;13.00;99.90;;;;;;4720444;30;20203;-75
2022/10/23 03:34:10;;;;;;;63.30;27.50;;;13.00;99.90;;;;;;4750580;30;20372;-76
2022/10/23 03:36:37;;;;;;;69.07;28.50;;;13.00;99.90;;;;;;4768033;30;20198;-76
2022/10/23 03:39:04;;;;;;;64.00;27.33;;;13.00;99.90;;;;;;4753642;30;20214;-75
2022/10/23 03:41:31;;;;;;;67.33;27.30;;;13.00;99.90;;;;;;4753181;30;20205;-75
2022/10/23 03:43:58;;;;;;;67.00;27.07;;;13.00;99.90;;;;;;4753295;30;20300;-75
2022/10/23 03:46:26;;;;;;;67.30;27.27;;;13.00;99.90;;;;;;4754265;30;20190;-75
2022/10/23 03:48:54;;;;;;;72.10;27.83;;;12.90;99.90;;;;;;4738665;30;20213;-75
2022/10/23 03:51:21;;;;;;;63.90;27.10;;;12.90;99.90;;;;;;4767830;30;20252;-75
2022/10/23 03:53:48;;;;;;;62.83;26.57;;;12.80;99.90;;;;;;4754206;30;20233;-75
2022/10/23 03:56:15;;;;;;;61.80;26.27;;;12.80;99.90;;;;;;4767744;30;20197;-75
2022/10/23 03:58:42;;;;;;;60.27;25.97;;;12.70;99.90;;;;;;4767788;30;20213;-76
2022/10/23 04:01:09;;;;;;;64.17;26.43;;;12.70;99.90;;;;;;4767888;30;20220;-75
2022/10/23 04:03:36;;;;;;;60.57;25.83;;;12.60;99.90;;;;;;4753035;30;20224;-75
2022/10/23 04:06:03;;;;;;;66.87;26.50;;;12.60;99.90;;;;;;4752726;30;20210;-75
2022/10/23 04:08:30;;;;;;;60.77;25.60;;;12.60;99.90;;;;;;4754342;30;20695;-75
2022/10/23 04:10:56;;;;;;;65.13;26.50;;;12.50;99.90;;;;;;4767723;30;20228;-75
2022/10/23 04:13:23;;;;;;;66.83;26.37;;;12.50;99.90;;;;;;4753971;30;20201;-75
2022/10/23 04:15:51;;;;;;;73.30;27.57;;;12.60;99.90;;;;;;4752951;30;20230;-75
2022/10/23 04:18:19;;;;;;;66.93;27.17;;;12.70;99.90;;;;;;4752487;30;20233;-75
2022/10/23 04:20:51;;;;;;;64.97;26.80;;;12.60;99.90;;;;;;4753671;30;20560;-75
2022/10/23 04:23:18;;;;;;;69.13;27.43;;;12.70;99.90;;;;;;4752660;30;20619;-75
2022/10/23 04:25:45;;;;;;;68.30;27.33;;;12.80;99.90;;;;;;4767426;30;20222;-74
2022/10/23 04:28:13;;;;;;;62.97;26.77;;;12.70;99.90;;;;;;4752587;30;20646;-74
2022/10/23 04:30:40;;;;;;;59.00;26.53;;;12.80;99.90;;;;;;4752550;30;20669;-74
2022/10/23 04:33:07;;;;;;;58.73;26.27;;;12.80;99.90;;;;;;4752581;30;20212;-74
2022/10/23 04:35:34;;;;;;;60.07;27.00;;;12.90;99.90;;;;;;4753352;30;20635;-74
2022/10/23 04:38:01;;;;;;;60.63;27.17;;;12.80;99.90;;;;;;4767505;30;20205;-75
2022/10/23 04:40:28;;;;;;;66.77;27.33;;;12.80;99.90;;;;;;4752541;30;20661;-75
2022/10/23 04:42:55;;;;;;;57.53;26.43;;;12.90;99.90;;;;;;4767087;30;20281;-75
2022/10/23 04:45:22;;;;;;;65.97;27.17;;;12.80;99.90;;;;;;4766254;30;20286;-75
2022/10/23 04:47:49;;;;;;;59.47;26.77;;;12.80;99.90;;;;;;4752124;30;20233;-75
2022/10/23 04:50:16;;;;;;;60.43;25.83;;;12.80;99.90;;;;;;4753297;30;20700;-75
2022/10/23 04:52:43;;;;;;;60.97;26.10;;;12.70;99.90;;;;;;4752149;30;20661;-75
2022/10/23 04:55:10;;;;;;;59.77;26.43;;;12.70;99.90;;;;;;4751852;30;20236;-74
2022/10/23 04:57:37;;;;;;;58.03;25.47;;;12.70;99.90;;;;;;4737674;30;20213;-75
2022/10/23 05:00:07;;;;;;;60.60;25.00;;;12.70;99.90;;;;;;4737304;30;20259;-75
2022/10/23 05:02:34;;;;;;;59.73;25.80;;;12.60;99.90;;;;;;4737247;30;20226;-74
2022/10/23 05:05:01;;;;;;;61.10;25.07;;;12.60;99.90;;;;;;4753042;30;20197;-74
2022/10/23 05:07:28;;;;;;;58.03;25.57;;;12.60;99.90;;;;;;4752935;30;20205;-75
2022/10/23 05:09:55;;;;;;;61.13;25.73;;;12.60;99.90;;;;;;4751924;30;20650;-75
2022/10/23 05:12:24;;;;;;;53.80;25.03;;;12.60;99.90;;;;;;4752092;30;20209;-76
2022/10/23 05:14:51;;;;;;;57.97;25.27;;;12.60;99.90;;;;;;4737014;30;20328;-75
2022/10/23 05:17:22;;;;;;;56.30;24.73;;;12.60;99.90;;;;;;4737427;30;20224;-75
2022/10/23 05:19:54;;;;;;;60.00;26.40;;;12.60;99.90;;;;;;4752929;30;20205;-76
2022/10/23 05:22:25;;;;;;;65.80;26.67;;;12.60;99.90;;;;;;4736921;30;20599;-75
2022/10/23 05:24:53;;;;;;;59.13;26.03;;;12.60;99.90;;;;;;4751679;30;20202;-76
2022/10/23 05:27:20;;;;;;;58.87;25.43;;;12.60;99.90;;;;;;4736980;30;20209;-75
2022/10/23 05:29:47;;;;;;;56.60;25.13;;;12.50;99.90;;;;;;4753029;30;20595;-75
2022/10/23 05:32:15;;;;;;;59.73;25.17;;;12.50;99.90;;;;;;4736792;30;20224;-75
2022/10/23 05:34:42;;;;;;;59.93;25.63;;;12.50;99.90;;;;;;4736798;30;20226;-75
2022/10/23 05:37:12;;;;;;;60.40;25.77;;;12.50;99.90;;;;;;4751236;30;20201;-75
2022/10/23 05:39:39;;;;;;;59.57;26.17;;;12.50;99.90;;;;;;4736801;30;20202;-75
2022/10/23 05:42:06;;;;;;;55.87;24.10;;;12.50;99.90;;;;;;4752577;30;20214;-75
2022/10/23 05:44:34;;;;;;;55.83;24.27;;;12.40;99.90;;;;;;4752540;30;20691;-74
2022/10/23 05:47:01;;;;;;;56.83;24.73;;;12.40;99.90;;;;;;4736470;30;20201;-74
2022/10/23 05:49:28;;;;;;;55.50;24.63;;;12.40;99.90;;;;;;4736350;30;20220;-74
2022/10/23 05:51:55;;;;;;;66.97;25.63;;;12.30;99.90;;;;;;4764298;30;20294;-75
2022/10/23 05:54:22;;;;;;;58.70;24.63;;;12.30;99.90;;;;;;4766200;30;20669;-76
2022/10/23 05:56:50;;;;;;;61.57;25.73;;;12.40;99.90;;;;;;4751151;30;20202;-76
2022/10/23 05:59:17;;;;;;;62.70;25.47;;;12.40;99.90;;;;;;4765929;30;20241;-75
2022/10/23 06:01:49;;;;;;;63.30;25.43;;;12.40;99.90;;;;;;4766000;30;20218;-75
2022/10/23 06:04:16;;;;;;;57.23;24.27;;;12.30;99.90;;;;;;4752701;30;20319;-76
2022/10/23 06:06:45;;;;;;;57.17;25.00;;;12.30;99.90;;;;;;4750703;30;20308;-75
2022/10/23 06:09:13;;;;;;;57.93;24.80;;;12.30;99.90;;;;;;4752248;30;20202;-75
2022/10/23 06:11:41;;;;;;;52.93;24.70;;;12.40;99.90;;;;;;4752332;30;20205;-74
2022/10/23 06:14:08;;;;;;;53.40;24.10;;;12.40;99.90;;;;;;4736324;30;20209;-75
2022/10/23 06:16:35;;;;;;;57.47;25.30;;;12.40;99.90;;;;;;4750957;30;20205;-75
2022/10/23 06:19:02;;;;;;;49.33;23.10;;;12.50;99.90;;;;;;4752318;30;20202;-75
2022/10/23 06:21:29;;;;;;;53.37;22.37;;;12.40;99.90;;;;;;4751136;30;20206;-75
2022/10/23 06:23:56;;;;;;;44.83;21.40;;;12.40;99.90;;;;;;4751376;30;20561;-73
2022/10/23 06:26:23;;;;;;;45.83;20.97;;;12.40;99.90;;;;;;4750862;30;20194;-74
2022/10/23 06:28:50;;;;;;;44.37;21.43;;;12.40;99.90;;;;;;4752450;30;20212;-74
2022/10/23 06:31:25;;;;;;;46.73;21.93;;;12.40;99.90;;;;;;4750714;30;20209;-74
2022/10/23 06:33:53;;;;;;;48.93;21.23;;;12.30;99.90;;;;;;4750803;30;20223;-74
2022/10/23 06:36:20;;;;;;;48.33;20.70;;;12.40;99.90;;;;;;4751630;30;20244;-75
2022/10/23 06:38:48;;;;;;;46.43;20.60;;;12.50;99.90;;;;;;4751217;30;20206;-74
2022/10/23 06:41:17;;;;;;;43.80;20.77;;;12.50;99.90;;;;;;4750919;30;20213;-74
2022/10/23 06:43:47;;;;;;;45.40;20.07;;;12.50;99.90;;;;;;4750976;30;20213;-74
2022/10/23 06:46:14;;;;;;;43.53;20.07;;;12.50;99.90;;;;;;4750671;30;20213;-74
2022/10/23 06:48:41;;;;;;;39.30;18.70;;;12.50;99.90;;;;;;4751924;30;20540;-74
2022/10/23 06:51:10;;;;;;;42.50;19.97;;;12.50;99.90;;;;;;4765435;30;20262;-74
2022/10/23 06:53:38;;;;;;;43.13;20.17;;;12.60;99.90;;;;;;4750679;30;20213;-73
2022/10/23 06:56:06;;;;;;;43.93;20.10;;;12.50;99.90;;;;;;4751912;30;20271;-74
2022/10/23 06:58:35;;;;;;;44.50;20.57;;;12.50;99.90;;;;;;4765801;30;20205;-74
2022/10/23 07:01:05;;;;;;;41.80;19.83;;;12.60;99.90;;;;;;4750864;30;20253;-74
2022/10/23 07:03:33;;;;;;;43.10;20.00;;;12.50;99.90;;;;;;4750514;30;20205;-76
2022/10/23 07:06:04;;;;;;;41.40;19.30;;;12.60;99.90;;;;;;4750440;30;20217;-74
2022/10/23 07:08:32;;;;;;;39.73;19.40;;;12.70;99.90;;;;;;4753613;30;20202;-74
2022/10/23 07:11:07;;;;;;;36.67;18.70;;;12.70;99.90;;;;;;4768929;30;20233;-74
2022/10/23 07:13:35;;;;;;;40.17;18.60;;;12.70;99.90;;;;;;4768621;30;20205;-73
2022/10/23 07:16:20;;;;;;;38.10;18.60;;;12.70;99.90;;;;;;4753954;30;20230;-74
2022/10/23 07:18:48;;;;;;;39.90;18.23;;;12.90;99.90;;;;;;4754915;30;20198;-73
2022/10/23 07:21:16;;;;;;;38.30;18.60;;;13.00;99.90;;;;;;4754859;30;20682;-74
2022/10/23 07:23:43;;;;;;;41.07;19.50;;;13.00;99.90;;;;;;4768263;30;20653;-74
2022/10/23 07:26:14;;;;;;;40.97;18.53;;;13.10;99.90;;;;;;4768364;30;20197;-75
2022/10/23 07:28:43;;;;;;;38.80;19.07;;;13.00;99.90;;;;;;4753561;30;20243;-74
2022/10/23 07:31:10;;;;;;;39.20;18.10;;;13.00;99.90;;;;;;4753293;30;20209;-74
2022/10/23 07:33:38;;;;;;;38.53;18.53;;;13.00;99.90;;;;;;4753370;30;20202;-74
2022/10/23 07:36:06;;;;;;;38.83;19.00;;;13.10;99.90;;;;;;4753383;30;20320;-74
2022/10/23 07:38:34;;;;;;;35.57;17.70;;;13.00;99.90;;;;;;4753435;30;20658;-74
2022/10/23 07:41:01;;;;;;;38.63;17.73;;;13.10;99.90;;;;;;4754537;30;20212;-74
2022/10/23 07:43:28;;;;;;;41.43;17.47;;;13.10;99.90;;;;;;4753487;30;20220;-75
2022/10/23 07:45:55;;;;;;;36.97;17.10;;;13.30;99.90;;;;;;4754382;30;20730;-74
2022/10/23 07:48:23;;;;;;;35.67;17.73;;;13.40;99.90;;;;;;4754172;30;20562;-74
2022/10/23 07:50:51;;;;;;;37.37;17.47;;;13.50;99.90;;;;;;4752939;30;20709;-73
2022/10/23 07:53:23;;;;;;;33.20;16.87;;;13.50;99.90;;;;;;4753158;30;20208;-74
2022/10/23 07:55:59;;;;;;;31.37;16.00;;;13.60;99.90;;;;;;4753038;30;20230;-73
2022/10/23 07:58:28;;;;;;;35.90;16.97;;;13.60;99.90;;;;;;4754367;30;20614;-74
2022/10/23 08:01:00;;;;;;;39.60;16.87;;;13.60;99.90;;;;;;4754174;30;20587;-75
2022/10/23 08:03:29;;;;;;;32.57;16.87;;;13.60;99.90;;;;;;4752990;30;20201;-74
2022/10/23 08:05:57;;;;;;;31.53;16.80;;;13.70;99.90;;;;;;4752875;30;20672;-74
2022/10/23 08:08:25;;;;;;;34.07;16.63;;;13.70;99.90;;;;;;4752831;30;20209;-74
2022/10/23 08:10:54;;;;;;;29.30;16.03;;;13.90;99.90;;;;;;4754441;30;20236;-75
2022/10/23 08:13:21;;;;;;;31.30;16.07;;;14.20;99.90;;;;;;4752757;30;20212;-74
2022/10/23 08:15:50;;;;;;;29.97;15.53;;;14.60;99.90;;;;;;4753103;30;20321;-75
2022/10/23 08:18:17;;;;;;;28.90;15.43;;;14.90;99.90;;;;;;4753767;30;20186;-74
2022/10/23 08:20:46;;;;;;;29.30;14.33;;;15.30;99.90;;;;;;4752603;30;20560;-74
2022/10/23 08:23:17;;;;;;;29.77;15.03;;;15.10;99.90;;;;;;4767722;30;20203;-74
2022/10/23 08:25:45;;;;;;;27.53;14.60;;;15.00;99.90;;;;;;4752476;30;20213;-74
2022/10/23 08:28:12;;;;;;;26.70;14.97;;;15.00;99.90;;;;;;4767819;30;20213;-75
2022/10/23 08:30:39;;;;;;;25.67;14.30;;;14.90;99.90;;;;;;4767760;30;20599;-76
2022/10/23 08:33:06;;;;;;;25.90;15.00;;;14.70;99.90;;;;;;4767412;30;20684;-74
2022/10/23 08:35:37;;;;;;;31.10;15.30;;;14.60;99.90;;;;;;4752344;30;20225;-74
2022/10/23 08:38:04;;;;;;;26.93;14.83;;;14.60;99.90;;;;;;4767179;30;20572;-75
2022/10/23 08:40:32;;;;;;;27.73;14.87;;;14.60;99.90;;;;;;4752569;30;20204;-75
2022/10/23 08:43:02;;;;;;;31.77;15.33;;;14.50;99.90;;;;;;4752216;30;20203;-74
2022/10/23 08:45:34;;;;;;;28.00;15.33;;;14.60;99.90;;;;;;4752230;30;20247;-75
2022/10/23 08:48:11;;;;;;;29.47;14.57;;;14.60;99.90;;;;;;4752342;30;20609;-74
2022/10/23 08:50:46;;;;;;;28.87;15.20;;;14.60;99.90;;;;;;4752321;30;20240;-74
2022/10/23 08:53:34;;;;;;;28.90;15.57;;;14.50;99.90;;;;;;4753145;30;20613;-74
2022/10/23 08:56:08;;;;;;;27.57;14.73;;;14.70;99.90;;;;;;4752133;30;20225;-75
2022/10/23 08:58:39;;;;;;;26.33;14.30;;;14.80;99.90;;;;;;4752265;30;20213;-74
2022/10/23 09:01:27;;;;;;;27.30;13.63;;;14.80;99.90;;;;;;4752939;30;20688;-74
2022/10/23 09:03:54;;;;;;;25.33;13.73;;;14.80;99.90;;;;;;4766376;30;20595;-74
2022/10/23 09:06:42;;;;;;;28.07;14.53;;;14.90;99.90;;;;;;4752742;30;20198;-73
2022/10/23 09:09:34;;;;;;;28.17;14.03;;;14.80;99.90;;;;;;4766335;30;20237;-74
2022/10/23 09:12:12;;;;;;;26.17;14.60;;;14.70;99.90;;;;;;4752736;30;20232;-73
2022/10/23 09:14:51;;;;;;;29.00;13.70;;;14.80;99.90;;;;;;4766079;30;20252;-74
2022/10/23 09:17:31;;;;;;;27.13;13.90;;;14.80;99.90;;;;;;4753237;30;20649;-74
2022/10/23 09:20:33;;;;;;;26.23;13.40;;;14.90;99.90;;;;;;4751845;30;20536;-74
2022/10/23 09:23:21;;;;;;;27.37;14.17;;;14.90;99.90;;;;;;4718347;30;20315;-74
2022/10/23 09:25:55;;;;;;;29.93;14.03;;;15.00;99.90;;;;;;4718203;30;20210;-73
2022/10/23 09:28:30;;;;;;;31.03;13.70;;;15.10;99.90;;;;;;4703917;30;20301;-74
2022/10/23 09:31:11;;;;;;;27.73;14.00;;;15.10;99.90;;;;;;4732359;30;20225;-74
2022/10/23 09:33:39;;;;;;;27.63;14.07;;;15.10;99.90;;;;;;4718601;30;20220;-74
2022/10/23 09:36:17;;;;;;;25.30;13.60;;;15.10;99.90;;;;;;4732987;30;20252;-74
2022/10/23 09:38:44;;;;;;;28.87;14.40;;;15.20;99.90;;;;;;4732813;30;20218;-74
2022/10/23 09:41:17;;;;;;;26.57;14.37;;;15.30;99.90;;;;;;4718098;30;20217;-74
2022/10/23 09:43:44;;;;;;;25.97;13.80;;;15.30;99.90;;;;;;4717962;30;20217;-74
2022/10/23 09:46:12;;;;;;;24.40;13.60;;;15.50;99.90;;;;;;4718097;30;20779;-74
2022/10/23 09:48:41;;;;;;;23.60;13.50;;;15.70;99.90;;;;;;4732363;30;20230;-74
2022/10/23 09:51:20;;;;;;;27.43;13.00;;;15.80;99.90;;;;;;4732472;30;20269;-74
2022/10/23 09:53:51;;;;;;;24.63;13.23;;;15.80;99.90;;;;;;4732646;30;20236;-75
2022/10/23 09:56:33;;;;;;;26.00;13.33;;;15.80;99.90;;;;;;4717927;30;20321;-73
2022/10/23 09:59:04;;;;;;;24.37;13.43;;;15.70;99.90;;;;;;4736101;30;20622;-74
2022/10/23 10:01:37;;;;;;;26.57;13.53;;;15.60;99.90;;;;;;4736060;30;20209;-74
2022/10/23 10:04:04;;;;;;;26.80;13.70;;;15.50;99.90;;;;;;4751858;30;20560;-74
2022/10/23 10:06:32;;;;;;;21.60;12.50;;;15.60;99.90;;;;;;4736751;30;20198;-74
2022/10/23 10:09:06;;;;;;;24.20;12.27;;;15.60;99.90;;;;;;4736251;30;20300;-74
2022/10/23 10:11:40;;;;;;;26.37;13.03;;;15.50;99.90;;;;;;4736617;30;20296;-74
2022/10/23 10:14:26;;;;;;;23.20;12.90;;;15.40;99.90;;;;;;4736467;30;20682;-74
2022/10/23 10:17:11;;;;;;;24.87;12.23;;;15.40;99.90;;;;;;4752012;30;20228;-73
2022/10/23 10:19:46;;;;;;;24.63;13.00;;;15.50;99.90;;;;;;4751072;30;20213;-73
2022/10/23 10:22:32;;;;;;;26.20;12.23;;;15.50;99.90;;;;;;4736689;30;20205;-73
2022/10/23 10:25:34;;;;;;;25.87;13.07;;;15.60;99.90;;;;;;4736522;30;20356;-74
2022/10/23 10:28:07;;;;;;;21.63;12.30;;;15.80;99.90;;;;;;4750821;30;20660;-74
2022/10/23 10:30:40;;;;;;;21.50;11.70;;;16.00;99.90;;;;;;4750958;30;20225;-73
2022/10/23 10:33:37;;;;;;;21.50;11.90;;;16.10;99.90;;;;;;4736791;30;20209;-74
2022/10/23 10:36:29;;;;;;;20.17;11.27;;;16.10;99.90;;;;;;4736220;30;20229;-73
2022/10/23 10:39:01;;;;;;;20.33;11.30;;;16.10;99.90;;;;;;4751952;30;20280;-74
2022/10/23 10:41:45;;;;;;;21.70;12.07;;;16.00;99.90;;;;;;4752611;30;20194;-73
2022/10/23 10:44:42;;;;;;;17.20;10.70;;;16.00;99.90;;;;;;4754158;30;20220;-73
2022/10/23 10:47:20;;;;;;;20.13;10.77;;;15.90;99.90;;;;;;4755367;30;20201;-73
2022/10/23 10:49:53;;;;;;;19.23;10.40;;;15.80;99.90;;;;;;4739312;30;20233;-73
2022/10/23 10:52:28;;;;;;;16.93;10.30;;;15.80;99.90;;;;;;4739589;30;20201;-74
2022/10/23 10:55:18;;;;;;;17.57;10.00;;;15.80;99.90;;;;;;4753971;30;20213;-74
2022/10/23 10:57:50;;;;;;;17.43;9.70;;;15.70;99.90;;;;;;4739238;30;20210;-74
2022/10/23 11:00:21;;;;;;;16.57;9.20;;;15.70;99.90;;;;;;4755211;30;20200;-73
2022/10/23 11:03:08;;;;;;;18.27;10.23;;;15.60;99.90;;;;;;4754131;30;20241;-74
2022/10/23 11:05:44;;;;;;;19.47;10.00;;;15.70;99.90;;;;;;4739182;30;20225;-74
2022/10/23 11:08:23;;;;;;;18.90;10.50;;;15.70;99.90;;;;;;4739424;30;20296;-76
2022/10/23 11:10:55;;;;;;;18.23;10.40;;;15.60;99.90;;;;;;4755468;30;20212;-75
2022/10/23 11:13:31;;;;;;;19.80;10.07;;;15.40;99.90;;;;;;4755491;30;20607;-75
2022/10/23 11:16:07;;;;;;;20.07;10.30;;;15.40;99.90;;;;;;4738939;30;20233;-73
2022/10/23 11:18:36;;;;;;;20.90;10.10;;;15.20;99.90;;;;;;4739105;30;20236;-73
2022/10/23 11:21:10;;;;;;;19.00;10.50;;;15.20;99.90;;;;;;4739510;30;20217;-74
2022/10/23 11:24:04;;;;;;;18.47;10.30;;;15.10;99.90;;;;;;4739197;30;20239;-74
2022/10/23 11:26:58;;;;;;;17.30;10.40;;;15.10;99.90;;;;;;4738832;30;20298;-74
2022/10/23 11:29:31;;;;;;;18.27;10.10;;;15.10;99.90;;;;;;4754748;30;20201;-74
2022/10/23 11:32:01;;;;;;;20.17;10.70;;;15.10;99.90;;;;;;4738878;30;20316;-74
2022/10/23 11:34:55;;;;;;;18.40;9.73;;;15.00;99.90;;;;;;4738957;30;20197;-73
2022/10/23 11:37:23;;;;;;;20.53;10.60;;;15.10;99.90;;;;;;4738791;30;20241;-73
2022/10/23 11:40:05;;;;;;;17.33;10.97;;;15.10;99.90;;;;;;4738667;30;20208;-74
2022/10/23 11:42:38;;;;;;;19.43;10.10;;;15.20;99.90;;;;;;4738576;30;20556;-73
2022/10/23 11:45:34;;;;;;;16.53;10.43;;;15.20;99.90;;;;;;4738821;30;20209;-72
2022/10/23 11:48:17;;;;;;;18.37;10.57;;;15.40;99.90;;;;;;4753566;30;20305;-72
2022/10/23 11:50:48;;;;;;;17.90;10.43;;;15.40;99.90;;;;;;4743094;30;20264;-73
2022/10/23 11:53:41;;;;;;;16.13;9.50;;;15.50;99.90;;;;;;4752929;30;20654;-73
2022/10/23 11:56:11;;;;;;;15.93;10.10;;;15.70;99.90;;;;;;4750346;30;20688;-73
2022/10/23 11:58:43;;;;;;;17.23;9.83;;;15.80;99.90;;;;;;4754695;30;20561;-73
2022/10/23 12:01:38;;;;;;;17.93;9.63;;;15.90;99.90;;;;;;4753334;30;20214;-72
2022/10/23 12:04:14;;;;;;;13.77;8.90;;;16.00;99.90;;;;;;4754253;30;20208;-73
2022/10/23 12:06:58;;;;;;;18.00;9.17;;;16.00;99.90;;;;;;4753089;30;20213;-73
2022/10/23 12:09:38;;;;;;;19.10;10.20;;;16.00;99.90;;;;;;4754110;30;20198;-73
2022/10/23 12:12:08;;;;;;;17.03;10.27;;;16.10;99.90;;;;;;4767728;30;20214;-73
2022/10/23 12:14:49;;;;;;;18.27;10.00;;;16.00;99.90;;;;;;4767810;30;20213;-74
2022/10/23 12:17:31;;;;;;;17.13;10.50;;;16.00;99.90;;;;;;4752950;30;20558;-73
2022/10/23 12:20:07;;;;;;;16.73;10.70;;;15.90;99.90;;;;;;4752770;30;20202;-74
2022/10/23 12:22:59;;;;;;;16.40;10.77;;;15.90;99.90;;;;;;4753057;30;20252;-73
2022/10/23 12:25:55;;;;;;;16.07;10.77;;;16.00;99.90;;;;;;4753695;30;20201;-73
2022/10/23 12:28:31;;;;;;;15.03;10.17;;;16.00;99.90;;;;;;4767370;30;20206;-74
2022/10/23 12:31:27;;;;;;;17.07;11.23;;;16.00;99.90;;;;;;4753876;30;20581;-73
2022/10/23 12:34:16;;;;;;;16.27;10.63;;;16.00;99.90;;;;;;4751034;30;20745;-74
2022/10/23 12:36:58;;;;;;;17.57;11.07;;;16.00;99.90;;;;;;4752596;30;20640;-73
2022/10/23 12:39:31;;;;;;;18.23;11.50;;;16.00;99.90;;;;;;4753788;30;20197;-74
2022/10/23 12:41:59;;;;;;;16.93;11.30;;;16.10;99.90;;;;;;4752588;30;20205;-74
2022/10/23 12:44:26;;;;;;;16.93;10.80;;;16.00;99.90;;;;;;4753535;30;20206;-73
2022/10/23 12:46:56;;;;;;;16.10;11.07;;;16.00;99.90;;;;;;4767167;30;20309;-74
2022/10/23 12:49:26;;;;;;;17.67;11.23;;;15.90;99.90;;;;;;4752101;30;20226;-75
2022/10/23 12:52:01;;;;;;;17.20;11.47;;;15.90;99.90;;;;;;4752181;30;20303;-73
2022/10/23 12:54:37;;;;;;;18.47;10.83;;;15.80;99.90;;;;;;4767052;30;20217;-73
2022/10/23 12:57:21;;;;;;;17.60;10.90;;;15.70;99.90;;;;;;4766584;30;20282;-73